Time;durP1;ratioP1;P1;durP2;ratioP2;P2;SDS_P1;SDS_P2;PMS_P1;PMS_P2;Temp;Humidity;BMP_temperature;BMP_pressure;BME280_temperature;BME280_humidity;BME280_pressure;Samples;Min_cycle;Max_cycle;Signal;HPM_P1;HPM_P2
2022/01/14 00:00:48;;;;;;;31.67;20.33;;;;;;;-0.54;98.28;100101.28;5057372;28;20475;-71
2022/01/14 00:03:14;;;;;;;28.33;19.03;;;;;;;-0.56;98.22;100110.16;5057314;28;20439;-71
2022/01/14 00:05:41;;;;;;;30.50;19.83;;;;;;;-0.61;98.59;100101.78;5056933;28;20731;-72
2022/01/14 00:08:07;;;;;;;32.73;20.20;;;;;;;-0.65;98.60;100109.00;5056997;28;20710;-68
2022/01/14 00:10:35;;;;;;;28.20;18.20;;;;;;;-0.69;98.38;100104.03;5056820;28;20422;-68
2022/01/14 00:13:10;;;;;;;30.07;19.93;;;;;;;-0.74;99.03;100087.84;5057060;28;20478;-68
2022/01/14 00:15:36;;;;;;;29.30;19.40;;;;;;;-0.71;99.01;100088.47;5056754;28;20425;-68
2022/01/14 00:18:03;;;;;;;25.00;18.40;;;;;;;-0.71;98.23;100087.66;5056583;28;20447;-68
2022/01/14 00:20:29;;;;;;;27.53;19.00;;;;;;;-0.71;98.73;100093.69;5056977;28;20430;-68
2022/01/14 00:22:56;;;;;;;27.53;19.30;;;;;;;-0.71;98.67;100096.31;5056970;28;20438;-68
2022/01/14 00:33:34;;;;;;;26.47;19.03;;;;;;;-0.65;98.69;100087.25;5056531;28;20697;-68
2022/01/14 00:36:01;;;;;;;29.73;18.43;;;;;;;-0.67;98.67;100089.94;5056338;28;20888;-67
2022/01/14 00:38:27;;;;;;;27.73;19.70;;;;;;;-0.66;98.53;100086.44;5056523;28;20752;-71
2022/01/14 00:40:53;;;;;;;27.93;18.90;;;;;;;-0.59;98.39;100087.69;5056581;28;20441;-71
2022/01/14 00:43:20;;;;;;;29.03;18.83;;;;;;;-0.59;98.26;100076.38;5056250;28;20450;-71
2022/01/14 00:45:46;;;;;;;28.30;18.50;;;;;;;-0.73;98.13;100089.50;5056527;28;20418;-71
2022/01/14 00:48:13;;;;;;;29.33;19.50;;;;;;;-0.77;98.91;100077.59;5056269;28;20474;-70
2022/01/14 00:50:41;;;;;;;26.00;18.03;;;;;;;-0.71;98.37;100069.38;5056507;28;20433;-69
2022/01/14 00:53:08;;;;;;;30.43;19.53;;;;;;;-0.73;98.64;100068.63;5056381;28;20449;-69
2022/01/14 00:55:47;;;;;;;28.03;19.33;;;;;;;-0.72;98.65;100070.31;5056411;28;20732;-69
2022/01/14 01:00:57;;;;;;;28.67;19.07;;;;;;;-0.68;98.55;100067.38;5056109;28;20404;-69
2022/01/14 01:03:24;;;;;;;27.70;19.50;;;;;;;-0.73;98.90;100061.63;5056534;28;20438;-69
2022/01/14 01:05:50;;;;;;;29.87;20.77;;;;;;;-0.67;98.48;100063.81;5055920;28;20422;-69
2022/01/14 01:08:22;;;;;;;31.73;21.10;;;;;;;-0.68;97.86;100064.78;5056147;28;20485;-72
2022/01/14 01:10:49;;;;;;;29.43;21.33;;;;;;;-0.67;97.95;100063.81;5056323;28;20430;-72
2022/01/14 01:13:21;;;;;;;28.73;20.07;;;;;;;-0.74;97.77;100065.19;5055971;28;20435;-68
2022/01/14 01:15:49;;;;;;;25.93;19.07;;;;;;;-0.72;97.39;100075.53;5056266;28;20430;-67
2022/01/14 01:18:15;;;;;;;31.50;20.87;;;;;;;-0.73;97.52;100072.06;5055083;28;20454;-68
2022/01/14 01:20:42;;;;;;;28.77;21.03;;;;;;;-0.80;97.99;100075.19;5056033;28;20434;-67
2022/01/14 01:23:08;;;;;;;30.17;20.93;;;;;;;-0.74;97.93;100069.56;5056021;28;20427;-67
2022/01/14 01:25:39;;;;;;;32.10;22.00;;;;;;;-0.77;97.42;100078.44;5056021;28;20430;-67
2022/01/14 01:28:06;;;;;;;31.97;21.53;;;;;;;-0.78;97.67;100081.97;5055964;28;20471;-71
2022/01/14 01:31:03;;;;;;;29.30;21.67;;;;;;;-0.83;97.95;100072.75;5055961;28;20438;-71
2022/01/14 01:33:30;;;;;;;29.43;21.13;;;;;;;-0.84;97.69;100068.47;5055635;28;20874;-70
2022/01/14 01:35:57;;;;;;;34.07;22.23;;;;;;;-0.82;97.71;100074.44;5056033;28;20430;-71
2022/01/14 01:38:24;;;;;;;33.33;23.53;;;;;;;-0.78;97.79;100065.47;5055897;28;20489;-71
2022/01/14 01:40:50;;;;;;;32.63;23.50;;;;;;;-0.81;98.00;100071.72;5055851;28;20525;-70
2022/01/14 01:43:20;;;;;;;34.50;23.30;;;;;;;-0.79;97.76;100072.47;5055596;28;20445;-71
2022/01/14 01:45:49;;;;;;;33.37;22.53;;;;;;;-0.83;98.13;100068.38;5055865;28;20445;-71
2022/01/14 01:48:16;;;;;;;35.10;23.83;;;;;;;-0.77;97.94;100080.22;5055676;28;20497;-71
2022/01/14 01:50:43;;;;;;;37.70;24.53;;;;;;;-0.83;97.54;100084.06;5055489;28;20872;-71
2022/01/14 01:53:09;;;;;;;36.97;24.40;;;;;;;-0.74;97.44;100082.63;5055744;28;20461;-71
2022/01/14 01:55:35;;;;;;;34.20;24.70;;;;;;;-0.79;97.09;100074.25;5055832;28;20422;-71
2022/01/14 01:58:02;;;;;;;36.10;25.30;;;;;;;-0.82;97.56;100071.81;5055424;28;20931;-70
2022/01/14 02:00:29;;;;;;;39.03;25.73;;;;;;;-0.85;97.35;100070.25;5055726;28;20434;-71
2022/01/14 02:02:56;;;;;;;37.97;26.13;;;;;;;-0.87;97.36;100066.06;5055668;28;20509;-71
2022/01/14 02:05:24;;;;;;;34.27;23.73;;;;;;;-0.84;97.09;100071.09;5055654;28;20430;-71
2022/01/14 02:07:51;;;;;;;34.33;23.83;;;;;;;-0.79;96.90;100064.66;5055441;28;20466;-71
2022/01/14 02:10:17;;;;;;;32.43;23.50;;;;;;;-0.82;96.57;100054.38;5055671;28;20429;-71
2022/01/14 02:12:50;;;;;;;37.53;25.23;;;;;;;-0.83;96.18;100060.56;5055265;28;20434;-71
2022/01/14 02:15:28;;;;;;;37.57;23.83;;;;;;;-0.84;96.27;100063.25;5055313;28;20837;-71
2022/01/14 02:18:25;;;;;;;33.40;23.60;;;;;;;-0.85;96.60;100065.03;5055130;28;20454;-71
2022/01/14 02:23:39;;;;;;;35.23;22.13;;;;;;;-0.89;96.35;100057.50;5055291;28;20480;-71
2022/01/14 02:26:06;;;;;;;32.83;21.67;;;;;;;-0.91;96.22;100060.22;5055530;28;20513;-71
2022/01/14 02:28:32;;;;;;;31.87;23.27;;;;;;;-0.89;96.49;100044.44;5055392;28;20774;-70
2022/01/14 02:30:58;;;;;;;32.23;22.63;;;;;;;-0.90;97.11;100056.66;5058899;28;20647;-71
2022/01/14 02:33:25;;;;;;;33.60;22.70;;;;;;;-0.85;96.22;100044.13;5058691;28;20743;-71
2022/01/14 02:35:53;;;;;;;29.67;22.60;;;;;;;-0.91;95.92;100043.69;5058907;28;20434;-71
2022/01/14 02:38:20;;;;;;;32.40;22.60;;;;;;;-0.89;96.37;100032.22;5058809;28;20747;-70
2022/01/14 02:40:48;;;;;;;31.57;22.33;;;;;;;-0.93;96.47;100029.91;5058834;28;20430;-71
2022/01/14 02:43:16;;;;;;;29.87;22.20;;;;;;;-0.96;96.70;100017.91;5058475;28;20446;-70
2022/01/14 02:45:48;;;;;;;30.03;21.47;;;;;;;-0.98;96.14;100022.38;5058424;28;20564;-70
2022/01/14 02:48:15;;;;;;;29.43;21.67;;;;;;;-1.00;96.93;100026.00;5058357;28;20516;-70
2022/01/14 02:50:42;;;;;;;29.47;21.33;;;;;;;-1.00;96.60;100015.56;5058232;28;20434;-71
2022/01/14 02:53:26;;;;;;;30.13;21.30;;;;;;;-1.00;96.72;100010.34;5058704;28;20522;-71
2022/01/14 02:56:00;;;;;;;29.30;20.77;;;;;;;-1.01;96.09;100011.28;5058586;28;20433;-71
2022/01/14 02:58:30;;;;;;;30.27;21.43;;;;;;;-0.99;96.27;100015.47;5058464;28;20456;-71
2022/01/14 03:01:00;;;;;;;29.63;21.83;;;;;;;-0.99;96.51;100005.03;5058530;28;20430;-71
2022/01/14 03:03:30;;;;;;;28.63;21.20;;;;;;;-1.03;96.35;100000.94;5058784;28;20716;-71
2022/01/14 03:05:56;;;;;;;27.93;20.70;;;;;;;-1.03;96.70;99998.34;5058413;28;20423;-71
2022/01/14 03:08:23;;;;;;;28.50;20.10;;;;;;;-1.05;96.52;99999.38;5058211;28;20478;-71
2022/01/14 03:11:06;;;;;;;26.10;19.83;;;;;;;-1.02;96.25;99999.19;5058238;28;20430;-71
2022/01/14 03:13:33;;;;;;;30.67;20.63;;;;;;;-1.05;95.93;100000.22;5058328;28;20422;-71
2022/01/14 03:16:01;;;;;;;29.10;20.77;;;;;;;-1.07;96.42;100004.69;5058193;28;20445;-71
2022/01/14 03:18:33;;;;;;;30.03;20.40;;;;;;;-1.06;96.83;99993.34;5058079;28;20527;-71
2022/01/14 03:21:09;;;;;;;29.73;20.83;;;;;;;-1.04;96.18;100001.06;5058178;28;20419;-71
2022/01/14 03:23:45;;;;;;;30.53;19.97;;;;;;;-1.06;96.04;99995.94;5057825;28;20773;-71
2022/01/14 03:26:12;;;;;;;30.20;20.50;;;;;;;-1.05;96.73;99988.94;5057700;28;20458;-71
2022/01/14 03:28:39;;;;;;;30.57;20.87;;;;;;;-1.06;96.68;99995.94;5057883;28;20470;-71
2022/01/14 03:31:05;;;;;;;28.63;20.43;;;;;;;-1.08;96.31;99982.13;5057577;28;20884;-72
2022/01/14 03:33:32;;;;;;;25.83;20.03;;;;;;;-1.04;96.74;99993.25;5057819;28;20445;-67
2022/01/14 03:35:58;;;;;;;28.90;20.47;;;;;;;-1.05;96.47;99988.94;5057474;28;20866;-67
2022/01/14 03:38:24;;;;;;;30.00;20.07;;;;;;;-1.07;96.75;99994.25;5057476;28;20755;-67
2022/01/14 03:40:51;;;;;;;27.57;20.53;;;;;;;-1.06;96.84;99992.47;5057225;28;20434;-67
2022/01/14 03:43:17;;;;;;;25.57;19.17;;;;;;;-1.11;96.06;99992.78;5057571;28;20453;-71
2022/01/14 03:45:44;;;;;;;27.77;19.77;;;;;;;-1.05;96.25;99995.00;5057765;28;20434;-71
2022/01/14 03:48:10;;;;;;;24.90;19.20;;;;;;;-1.06;96.16;99992.47;5057587;28;20461;-70
2022/01/14 03:50:37;;;;;;;27.93;20.57;;;;;;;-1.09;96.36;99988.28;5057638;28;20445;-71
2022/01/14 03:53:04;;;;;;;27.13;20.23;;;;;;;-1.08;96.16;99992.56;5057647;28;20445;-71
2022/01/14 03:55:31;;;;;;;28.73;19.70;;;;;;;-1.10;96.70;99989.25;5057250;28;20422;-71
2022/01/14 03:57:57;;;;;;;27.10;20.40;;;;;;;-1.12;95.75;99987.66;5057185;28;20462;-70
2022/01/14 04:00:24;;;;;;;32.60;22.10;;;;;;;-1.09;95.97;99988.28;5057266;28;20424;-72
2022/01/14 04:02:51;;;;;;;26.80;19.27;;;;;;;-1.08;96.14;99982.13;5057230;28;20434;-72
2022/01/14 04:05:18;;;;;;;28.37;20.60;;;;;;;-1.10;95.93;99984.03;5057246;28;20445;-72
2022/01/14 04:07:44;;;;;;;27.33;19.93;;;;;;;-1.13;95.86;99983.38;5056804;28;20930;-72
2022/01/14 04:10:12;;;;;;;30.77;19.67;;;;;;;-1.11;96.09;99977.13;5057030;28;20768;-72
2022/01/14 04:12:50;;;;;;;30.73;21.57;;;;;;;-1.21;95.86;99975.22;5056700;28;20532;-72
2022/01/14 04:18:03;;;;;;;30.97;20.83;;;;;;;-1.18;95.39;99978.44;5056522;28;20835;-72
2022/01/14 04:20:30;;;;;;;28.63;20.60;;;;;;;-1.18;95.69;99970.63;5056748;28;20434;-72
2022/01/14 04:22:57;;;;;;;29.30;19.80;;;;;;;-1.18;95.73;99962.78;5056641;28;20434;-67
2022/01/14 04:25:24;;;;;;;27.23;19.47;;;;;;;-1.16;95.36;99958.34;5056671;28;20706;-67
2022/01/14 04:27:51;;;;;;;27.83;20.83;;;;;;;-1.16;95.93;99957.47;5056675;28;20461;-72
2022/01/14 04:30:18;;;;;;;28.27;19.23;;;;;;;-1.14;96.06;99951.22;5056781;28;20466;-72
2022/01/14 04:32:45;;;;;;;26.07;19.40;;;;;;;-1.18;95.90;99952.34;5056637;28;20435;-73
2022/01/14 04:35:12;;;;;;;27.70;20.00;;;;;;;-1.17;95.50;99954.03;5056234;28;20858;-72
2022/01/14 04:37:38;;;;;;;29.60;21.03;;;;;;;-1.21;95.44;99947.31;5056473;28;20460;-72
2022/01/14 04:40:06;;;;;;;27.63;20.30;;;;;;;-1.21;95.86;99942.09;5056259;28;20856;-72
2022/01/14 04:42:33;;;;;;;28.70;19.53;;;;;;;-1.22;96.20;99939.63;5056082;28;20462;-72
2022/01/14 04:44:59;;;;;;;26.17;19.13;;;;;;;-1.19;95.55;99945.47;5056186;28;20533;-72
2022/01/14 04:47:44;;;;;;;28.57;19.77;;;;;;;-1.21;95.67;99941.28;5056038;28;20928;-72
2022/01/14 04:50:17;;;;;;;27.90;19.53;;;;;;;-1.24;96.13;99946.69;5056195;28;20481;-72
2022/01/14 04:52:45;;;;;;;25.87;18.87;;;;;;;-1.22;95.95;99945.66;5055368;28;20426;-67
2022/01/14 04:55:13;;;;;;;26.93;19.30;;;;;;;-1.27;95.97;99945.13;5056307;28;20432;-71
2022/01/14 04:57:41;;;;;;;26.30;19.27;;;;;;;-1.24;96.25;99941.47;5055812;28;20458;-71
2022/01/14 05:00:14;;;;;;;28.23;18.57;;;;;;;-1.17;95.85;99938.38;5056161;28;20419;-71
2022/01/14 05:02:41;;;;;;;28.07;19.57;;;;;;;-1.19;95.86;99940.25;5055943;28;20430;-71
2022/01/14 05:05:10;;;;;;;27.17;19.90;;;;;;;-1.22;95.76;99945.66;5055611;28;20461;-72
2022/01/14 05:07:37;;;;;;;25.50;17.97;;;;;;;-1.23;96.03;99940.53;5055610;28;20913;-72
2022/01/14 05:10:19;;;;;;;26.80;18.53;;;;;;;-1.24;95.75;99944.94;5056050;28;20466;-72
2022/01/14 05:12:45;;;;;;;29.27;20.00;;;;;;;-1.27;95.67;99939.91;5056043;28;20454;-72
2022/01/14 05:15:14;;;;;;;28.17;18.13;;;;;;;-1.23;95.77;99943.16;5056033;28;20422;-72
2022/01/14 05:17:41;;;;;;;26.43;18.17;;;;;;;-1.21;95.86;99946.50;5056013;28;20454;-72
2022/01/14 05:20:08;;;;;;;26.00;18.33;;;;;;;-1.22;95.38;99945.66;5056060;28;20699;-72
2022/01/14 05:22:34;;;;;;;27.50;18.70;;;;;;;-1.25;96.00;99935.44;5055512;28;20426;-72
2022/01/14 05:25:01;;;;;;;28.10;18.80;;;;;;;-1.22;95.52;99940.44;5055312;28;20422;-72
2022/01/14 05:27:27;;;;;;;26.30;18.20;;;;;;;-1.24;95.52;99950.16;5055758;28;20454;-72
2022/01/14 05:29:54;;;;;;;23.70;17.93;;;;;;;-1.23;95.30;99937.94;5055612;28;20491;-72
2022/01/14 05:32:21;;;;;;;25.67;17.77;;;;;;;-1.16;95.05;99944.44;5055670;28;20444;-70
2022/01/14 05:34:48;;;;;;;26.17;18.90;;;;;;;-1.17;95.04;99943.59;5055313;28;20430;-71
2022/01/14 05:37:14;;;;;;;24.33;18.33;;;;;;;-1.23;95.08;99941.38;5055526;28;20454;-69
2022/01/14 05:39:41;;;;;;;26.20;18.60;;;;;;;-1.22;95.55;99950.06;5055697;28;20418;-69
2022/01/14 05:42:09;;;;;;;22.50;17.43;;;;;;;-1.24;95.67;99941.47;5055102;28;20727;-72
2022/01/14 05:44:36;;;;;;;23.37;17.43;;;;;;;-1.26;95.70;99946.78;5055398;28;20430;-67
2022/01/14 05:47:03;;;;;;;24.87;18.33;;;;;;;-1.33;95.30;99948.13;5055286;28;20454;-67
2022/01/14 05:49:29;;;;;;;27.67;19.10;;;;;;;-1.31;96.29;99945.44;5055127;28;20478;-72
2022/01/14 05:51:55;;;;;;;23.10;17.10;;;;;;;-1.34;96.01;99946.47;5055071;28;20893;-72
2022/01/14 05:54:23;;;;;;;22.33;17.23;;;;;;;-1.37;95.93;99943.19;5055096;28;20726;-72
2022/01/14 05:56:50;;;;;;;24.60;17.97;;;;;;;-1.33;95.77;99937.72;5055217;28;20465;-72
2022/01/14 05:59:16;;;;;;;23.57;17.60;;;;;;;-1.33;96.54;99935.09;5055392;28;20426;-72
2022/01/14 06:01:44;;;;;;;25.20;18.43;;;;;;;-1.29;95.99;99944.41;5054846;28;20430;-72
2022/01/14 06:04:11;;;;;;;26.73;18.70;;;;;;;-1.31;96.06;99940.22;5055479;28;20423;-72
2022/01/14 06:06:38;;;;;;;25.83;17.93;;;;;;;-1.36;95.86;99932.69;5058753;28;20458;-69
2022/01/14 06:09:05;;;;;;;23.30;17.73;;;;;;;-1.33;95.57;99923.81;5058385;28;20426;-69
2022/01/14 06:11:32;;;;;;;23.93;16.97;;;;;;;-1.46;95.86;99922.94;5058893;28;20436;-69
2022/01/14 06:13:58;;;;;;;24.17;18.00;;;;;;;-1.55;95.78;99919.16;5058411;28;20727;-72
2022/01/14 06:16:25;;;;;;;23.77;17.63;;;;;;;-1.55;96.28;99913.94;5058754;28;20454;-72
2022/01/14 06:18:51;;;;;;;27.50;18.43;;;;;;;-1.58;96.71;99916.72;5058466;28;20442;-72
2022/01/14 06:21:17;;;;;;;26.10;17.70;;;;;;;-1.57;96.70;99918.41;5058913;28;20441;-67
2022/01/14 06:23:44;;;;;;;28.17;18.33;;;;;;;-1.49;96.25;99923.16;5058216;28;20434;-67
2022/01/14 06:26:10;;;;;;;24.53;17.23;;;;;;;-1.47;96.16;99919.50;5057976;28;20438;-67
2022/01/14 06:28:37;;;;;;;24.60;17.40;;;;;;;-1.54;96.74;99915.59;5058255;28;20426;-67
2022/01/14 06:31:03;;;;;;;23.23;17.07;;;;;;;-1.56;96.58;99909.66;5058107;28;20458;-68
2022/01/14 06:33:30;;;;;;;26.77;18.33;;;;;;;-1.56;96.75;99914.03;5058079;28;20850;-72
2022/01/14 06:35:56;;;;;;;21.73;17.57;;;;;;;-1.52;96.13;99910.28;5058512;28;20525;-71
2022/01/14 06:38:22;;;;;;;25.60;18.20;;;;;;;-1.53;96.49;99911.22;5058370;28;20461;-73
2022/01/14 06:40:49;;;;;;;26.13;18.83;;;;;;;-1.49;96.25;99905.72;5058461;28;20426;-69
2022/01/14 06:43:17;;;;;;;23.70;17.60;;;;;;;-1.53;96.34;99906.00;5057851;28;20442;-69
2022/01/14 06:45:43;;;;;;;21.63;17.53;;;;;;;-1.55;96.96;99905.25;5058108;28;20434;-72
2022/01/14 06:48:10;;;;;;;25.10;18.00;;;;;;;-1.51;96.33;99914.56;5058184;28;20742;-70
2022/01/14 06:50:37;;;;;;;24.47;17.93;;;;;;;-1.51;96.52;99915.41;5058252;28;20455;-67
2022/01/14 06:53:04;;;;;;;25.10;17.23;;;;;;;-1.46;95.98;99918.56;5058317;28;20442;-72
2022/01/14 06:55:30;;;;;;;23.83;16.90;;;;;;;-1.41;96.25;99918.25;5057795;28;20438;-71
2022/01/14 06:57:57;;;;;;;22.93;16.17;;;;;;;-1.42;95.54;99921.81;5057792;28;20458;-67
2022/01/14 07:00:23;;;;;;;23.17;17.27;;;;;;;-1.36;95.56;99935.28;5057973;28;20736;-72
2022/01/14 07:02:50;;;;;;;20.93;16.33;;;;;;;-1.23;94.05;99936.16;5057728;28;20438;-72
2022/01/14 07:05:16;;;;;;;27.93;18.03;;;;;;;-1.34;95.04;99943.88;5057705;28;20429;-72
2022/01/14 07:07:43;;;;;;;24.97;17.23;;;;;;;-1.45;94.62;99942.84;5057656;28;20457;-72
2022/01/14 07:10:10;;;;;;;24.70;17.80;;;;;;;-1.48;94.48;99958.72;5057503;28;20462;-71
2022/01/14 07:12:41;;;;;;;23.00;17.00;;;;;;;-1.52;95.03;99962.44;5057773;28;20479;-70
2022/01/14 07:15:11;;;;;;;25.27;16.97;;;;;;;-1.49;94.78;99962.28;5057307;28;20418;-71
2022/01/14 07:17:38;;;;;;;24.27;16.70;;;;;;;-1.50;94.68;99977.06;5056399;28;20962;-71
2022/01/14 07:20:07;;;;;;;26.67;17.97;;;;;;;-1.46;95.27;99981.16;5057595;28;20450;-67
2022/01/14 07:22:34;;;;;;;23.83;17.43;;;;;;;-1.46;95.47;99981.16;5057221;28;20442;-72
2022/01/14 07:25:01;;;;;;;28.47;18.37;;;;;;;-1.44;95.09;99986.28;5057629;28;20438;-72
2022/01/14 07:27:28;;;;;;;22.83;17.20;;;;;;;-1.43;95.08;99988.81;5057471;28;20491;-73
2022/01/14 07:29:55;;;;;;;21.23;16.67;;;;;;;-1.37;95.15;99985.78;5057547;28;20520;-73
2022/01/14 07:32:22;;;;;;;26.63;17.20;;;;;;;-1.39;94.91;99994.66;5057618;28;20423;-69
2022/01/14 07:34:49;;;;;;;22.43;16.50;;;;;;;-1.41;95.20;99992.13;5057530;28;20728;-69
2022/01/14 07:37:17;;;;;;;22.83;16.97;;;;;;;-1.34;94.98;99993.44;5057351;28;20486;-69
2022/01/14 07:39:44;;;;;;;22.47;16.23;;;;;;;-1.32;95.47;99996.78;5057337;28;20517;-69
2022/01/14 07:42:10;;;;;;;24.40;16.67;;;;;;;-1.29;94.61;100000.97;5057042;28;20484;-67
2022/01/14 07:44:38;;;;;;;23.03;16.23;;;;;;;-1.24;95.07;99998.88;5057103;28;20764;-67
2022/01/14 07:47:04;;;;;;;23.20;15.67;;;;;;;-1.24;95.19;100001.50;5056684;28;20539;-73
2022/01/14 07:49:30;;;;;;;22.27;16.53;;;;;;;-1.21;94.63;99999.53;5057176;28;20461;-73
2022/01/14 07:51:57;;;;;;;22.33;16.83;;;;;;;-1.17;94.70;99987.13;5057064;28;20441;-73
2022/01/14 07:54:23;;;;;;;25.17;17.27;;;;;;;-1.11;93.85;99992.78;5057099;28;20441;-66
2022/01/14 07:56:52;;;;;;;26.90;18.47;;;;;;;-1.06;93.99;99985.50;5057069;28;20466;-67
2022/01/14 07:59:24;;;;;;;21.77;16.10;;;;;;;-1.06;93.63;99989.88;5057054;28;20434;-66
2022/01/14 08:01:54;;;;;;;22.53;16.50;;;;;;;-1.05;94.28;99983.72;5057230;28;20430;-66
2022/01/14 08:04:21;;;;;;;23.90;16.63;;;;;;;-1.05;93.63;99983.72;5057084;28;20433;-72
2022/01/14 08:06:50;;;;;;;25.07;17.60;;;;;;;-0.98;93.40;99985.81;5056706;28;20450;-69
2022/01/14 08:09:18;;;;;;;23.63;17.07;;;;;;;-1.00;93.42;99979.88;5056990;28;20418;-73
2022/01/14 08:11:45;;;;;;;28.20;17.67;;;;;;;-0.98;93.37;99985.81;5056841;28;20434;-69
2022/01/14 08:14:12;;;;;;;26.97;17.33;;;;;;;-1.01;93.93;99983.44;5056569;28;20434;-69
2022/01/14 08:16:39;;;;;;;22.60;17.30;;;;;;;-0.93;93.59;99988.13;5056749;28;20530;-69
2022/01/14 08:19:05;;;;;;;24.03;16.90;;;;;;;-0.88;92.96;99991.28;5056549;28;20439;-66
2022/01/14 08:21:32;;;;;;;21.67;16.23;;;;;;;-0.84;92.97;99984.94;5056667;28;20449;-66
2022/01/14 08:23:58;;;;;;;24.47;16.70;;;;;;;-0.81;93.10;99984.75;5056267;28;20975;-72
2022/01/14 08:26:25;;;;;;;26.10;16.57;;;;;;;-0.70;92.00;99990.06;5056538;28;20537;-72
2022/01/14 08:28:51;;;;;;;21.83;15.93;;;;;;;-0.71;92.80;99988.41;5056217;28;20683;-72
2022/01/14 08:31:19;;;;;;;21.23;15.67;;;;;;;-0.69;93.11;99992.59;5056079;28;20455;-66
2022/01/14 08:33:46;;;;;;;24.13;16.63;;;;;;;-0.64;92.51;99989.66;5056334;28;20440;-67
2022/01/14 08:36:13;;;;;;;24.67;16.17;;;;;;;-0.53;92.93;99993.22;5056385;28;20434;-67
2022/01/14 08:38:40;;;;;;;20.60;16.10;;;;;;;-0.47;92.30;99992.84;5054687;28;20453;-66
2022/01/14 08:41:06;;;;;;;26.73;17.47;;;;;;;-0.45;91.29;99988.31;5054464;28;20426;-67
2022/01/14 08:43:32;;;;;;;24.97;17.17;;;;;;;-0.40;91.42;99991.47;5054046;28;20453;-66
2022/01/14 08:46:01;;;;;;;22.83;17.13;;;;;;;-0.38;91.33;99993.97;5054282;28;20434;-66
2022/01/14 08:48:28;;;;;;;21.20;16.83;;;;;;;-0.34;91.42;99987.59;5054281;28;20458;-73
2022/01/14 08:50:55;;;;;;;22.90;16.33;;;;;;;-0.26;90.92;99986.13;5054032;28;20509;-74
2022/01/14 08:53:21;;;;;;;25.13;15.77;;;;;;;-0.17;90.25;99988.13;5055448;28;20422;-73
2022/01/14 08:55:47;;;;;;;20.03;15.60;;;;;;;-0.16;90.41;99986.34;5056151;28;20426;-66
2022/01/14 08:58:14;;;;;;;23.13;15.77;;;;;;;-0.17;90.33;99985.50;5056128;28;20446;-67
2022/01/14 09:00:41;;;;;;;21.10;15.30;;;;;;;-0.15;90.74;99980.19;5056327;28;20431;-73
2022/01/14 09:03:07;;;;;;;24.07;15.97;;;;;;;-0.10;90.73;99981.53;5055788;28;20525;-73
2022/01/14 09:05:34;;;;;;;22.40;15.77;;;;;;;-0.06;90.87;99977.78;5055819;28;20209;-73
2022/01/14 09:08:02;;;;;;;22.97;16.43;;;;;;;0.01;90.39;99979.00;5056034;28;20457;-74
2022/01/14 09:10:28;;;;;;;23.20;15.53;;;;;;;0.05;89.60;99977.84;5055858;28;20309;-74
2022/01/14 09:12:55;;;;;;;22.97;16.43;;;;;;;0.09;89.72;99978.47;5055577;28;20900;-73
2022/01/14 09:15:21;;;;;;;22.37;16.30;;;;;;;0.14;89.44;99972.00;5055669;28;20731;-73
2022/01/14 09:17:48;;;;;;;24.03;17.00;;;;;;;0.22;88.64;99975.88;5055882;28;20771;-69
2022/01/14 09:20:15;;;;;;;21.03;16.73;;;;;;;0.30;89.35;99973.56;5056015;28;20433;-69
2022/01/14 09:22:47;;;;;;;24.83;17.57;;;;;;;0.38;89.13;99976.44;5055976;28;20441;-69
2022/01/14 09:25:15;;;;;;;27.10;16.73;;;;;;;0.70;87.23;99977.59;5055585;28;20588;-73
2022/01/14 09:27:41;;;;;;;24.70;16.20;;;;;;;0.90;85.96;99969.97;5055464;28;20758;-72
2022/01/14 09:30:08;;;;;;;23.33;16.63;;;;;;;0.85;85.36;99971.25;5055581;28;20667;-73
2022/01/14 09:32:35;;;;;;;22.23;15.50;;;;;;;0.99;84.10;99982.38;5055809;28;20198;-73
2022/01/14 09:35:03;;;;;;;25.37;15.77;;;;;;;1.05;84.76;99968.00;5055751;28;20197;-72
2022/01/14 09:37:29;;;;;;;24.80;15.80;;;;;;;0.94;85.34;99975.81;5055790;28;20221;-73
2022/01/14 09:39:56;;;;;;;26.37;16.23;;;;;;;0.85;84.94;99977.31;5057803;28;20228;-72
2022/01/14 09:42:22;;;;;;;22.87;16.07;;;;;;;0.94;85.97;99983.69;5059654;28;20216;-72
2022/01/14 09:44:49;;;;;;;23.17;16.60;;;;;;;1.03;85.51;99977.78;5059417;28;20209;-73
2022/01/14 09:47:20;;;;;;;23.60;15.10;;;;;;;1.07;84.50;99987.09;5059813;28;20221;-72
2022/01/14 09:49:47;;;;;;;23.77;15.63;;;;;;;1.08;84.46;99978.28;5059724;28;20569;-68
2022/01/14 09:52:15;;;;;;;24.10;16.47;;;;;;;1.29;83.84;99977.50;5059483;28;20473;-68
2022/01/14 09:54:43;;;;;;;23.13;15.87;;;;;;;1.39;83.23;99968.00;5059366;28;20205;-68
2022/01/14 09:57:12;;;;;;;27.20;16.00;;;;;;;1.36;83.65;99977.88;5059128;28;20232;-72
2022/01/14 09:59:38;;;;;;;26.17;16.80;;;;;;;1.46;84.12;99968.38;5059163;28;20495;-73
2022/01/14 10:02:05;;;;;;;20.97;15.67;;;;;;;1.35;84.39;99968.38;5059138;28;20585;-73
2022/01/14 10:04:32;;;;;;;24.80;15.80;;;;;;;1.33;84.95;99971.09;5059394;28;20194;-72
2022/01/14 10:07:00;;;;;;;24.10;15.90;;;;;;;1.39;84.34;99962.75;5059203;28;20225;-72
2022/01/14 10:09:40;;;;;;;23.07;17.10;;;;;;;1.41;85.05;99967.91;5059406;28;20205;-72
2022/01/14 10:12:16;;;;;;;21.87;15.73;;;;;;;1.71;82.81;99971.66;5058916;28;20236;-68
2022/01/14 10:14:55;;;;;;;22.73;15.00;;;;;;;1.90;82.12;99965.84;5059238;28;20193;-68
2022/01/14 10:17:23;;;;;;;19.90;14.77;;;;;;;2.07;80.06;99975.88;5058739;28;20663;-68
2022/01/14 10:19:49;;;;;;;21.47;15.50;;;;;;;1.96;81.11;99973.22;5058690;28;20628;-68
2022/01/14 10:22:30;;;;;;;20.57;15.80;;;;;;;1.91;81.60;99970.97;5058916;28;20250;-68
2022/01/14 10:25:05;;;;;;;21.53;15.63;;;;;;;1.95;81.38;99961.91;5059025;28;20194;-68
2022/01/14 10:27:42;;;;;;;21.80;15.87;;;;;;;1.97;80.62;99964.41;5058910;28;20228;-67
2022/01/14 10:30:19;;;;;;;22.43;15.37;;;;;;;2.11;80.80;99964.16;5058823;28;20205;-68
2022/01/14 10:32:53;;;;;;;22.63;15.97;;;;;;;2.12;81.20;99958.78;5058531;28;20576;-68
2022/01/14 10:35:21;;;;;;;25.33;15.83;;;;;;;2.22;79.88;99964.16;5058929;28;20190;-72
2022/01/14 10:37:48;;;;;;;25.00;16.50;;;;;;;2.11;80.86;99961.53;5058671;28;20232;-72
2022/01/14 10:40:19;;;;;;;24.57;14.83;;;;;;;2.25;78.79;99958.69;5058694;28;20296;-72
2022/01/14 10:42:46;;;;;;;22.17;15.07;;;;;;;2.44;78.54;99959.72;5058352;28;20221;-73
2022/01/14 10:45:19;;;;;;;19.53;14.80;;;;;;;2.40;77.55;99947.78;5058204;28;20598;-66
2022/01/14 10:48:08;;;;;;;18.10;14.33;;;;;;;2.40;77.99;99953.03;5057937;28;20260;-67
2022/01/14 10:50:40;;;;;;;20.53;13.63;;;;;;;2.40;77.74;99953.03;5058435;28;20209;-66
2022/01/14 10:53:14;;;;;;;23.20;14.57;;;;;;;2.36;77.96;99948.16;5059076;28;20189;-69
2022/01/14 10:55:44;;;;;;;21.77;13.90;;;;;;;2.40;77.19;99949.59;5058417;28;20215;-69
2022/01/14 10:58:14;;;;;;;20.87;13.07;;;;;;;2.60;76.25;99936.53;5058504;28;20244;-69
2022/01/14 11:00:47;;;;;;;24.00;14.17;;;;;;;2.55;76.63;99940.50;5058138;28;20515;-73
2022/01/14 11:03:14;;;;;;;20.33;13.17;;;;;;;2.79;75.05;99938.50;5058437;28;20189;-72
2022/01/14 11:05:41;;;;;;;20.70;12.23;;;;;;;2.92;74.54;99940.03;5058059;28;20560;-72
2022/01/14 11:08:08;;;;;;;17.73;12.57;;;;;;;3.14;74.30;99941.72;5058106;28;20228;-71
2022/01/14 11:10:37;;;;;;;22.37;13.50;;;;;;;2.79;76.18;99935.88;5058058;28;20313;-71
2022/01/14 11:13:07;;;;;;;18.90;13.80;;;;;;;2.82;75.55;99935.63;5057634;28;20556;-66
2022/01/14 11:15:35;;;;;;;20.47;13.57;;;;;;;2.83;75.78;99932.03;5057858;28;20227;-66
2022/01/14 11:18:05;;;;;;;23.93;13.93;;;;;;;2.94;75.72;99929.41;5057932;28;20233;-66
2022/01/14 11:20:36;;;;;;;22.00;13.93;;;;;;;2.97;76.52;99922.09;5057547;28;20228;-72
2022/01/14 11:23:15;;;;;;;21.57;14.20;;;;;;;2.99;76.30;99924.59;5057944;28;20225;-72
2022/01/14 11:26:04;;;;;;;21.70;15.00;;;;;;;3.07;75.82;99916.91;5057490;28;20535;-72
2022/01/14 11:28:33;;;;;;;24.67;14.17;;;;;;;3.11;75.97;99905.19;5057531;28;20208;-68
2022/01/14 11:31:00;;;;;;;20.90;14.13;;;;;;;3.17;74.75;99907.31;5057696;28;20221;-68
2022/01/14 11:33:43;;;;;;;21.03;13.40;;;;;;;3.40;73.89;99898.31;5057625;28;20209;-68
2022/01/14 11:36:10;;;;;;;20.10;14.30;;;;;;;3.36;74.65;99896.91;5057511;28;20216;-68
2022/01/14 11:38:40;;;;;;;22.43;15.00;;;;;;;3.39;75.13;99902.75;5057108;28;20608;-68